Aneta, North Dakota
Current Conditions -  °F | °C
As of 9:28 AM on Monday 22 Dec 2014 (Local Time) from KRDR Reporting Station
Haze Haze  
Wind Chill: 30°   Ceiling: 300
Heat Index: 36°   Visibility: 1.2mi
Dew Point: 36°   Wind: 7mph
Humidity: 100%   Direction: 80°E
Pressure: 29.53"   Gusts: NA
Location:  47.68°N, 97.99°W
Report Text: KRDR 221528Z AUTO 08006KT 1 1/4SM BR OVC003 02/02 A2953 RMK AO2 $
Loading
Personal Weather Stations






























Interactive Weather Map New forecast layout! Learn more

10-Day Weather Forecast

Advertisements
Track Severe Weather on mobile